createdAt,value
2023-02-26T00:00:53.429Z,25.70
2023-02-26T00:03:28.716Z,25.80
2023-02-26T00:06:08.490Z,25.80
2023-02-26T00:08:44.443Z,25.90
2023-02-26T00:11:21.137Z,26.10
2023-02-26T00:13:56.690Z,26.20
2023-02-26T00:16:35.288Z,26.30
2023-02-26T00:19:12.906Z,26.40
2023-02-26T00:21:50.702Z,26.40
2023-02-26T00:24:25.952Z,26.50
2023-02-26T00:27:03.122Z,26.50
2023-02-26T00:29:39.539Z,26.50
2023-02-26T00:32:15.889Z,26.50
2023-02-26T00:34:52.309Z,26.50
2023-02-26T00:37:40.598Z,26.50
2023-02-26T00:40:26.324Z,26.60
2023-02-26T00:43:03.420Z,26.60
2023-02-26T00:45:39.261Z,26.70
2023-02-26T00:48:32.439Z,26.60
2023-02-26T00:51:15.052Z,26.70
2023-02-26T00:53:56.698Z,26.70
2023-02-26T00:56:31.939Z,26.70
2023-02-26T00:59:08.515Z,26.70
2023-02-26T01:01:44.547Z,26.80
2023-02-26T01:04:22.932Z,26.80
2023-02-26T01:07:02.091Z,26.80
2023-02-26T01:09:41.547Z,26.70
2023-02-26T01:12:19.175Z,26.60
2023-02-26T01:14:55.668Z,26.60
2023-02-26T01:17:38.135Z,26.60
2023-02-26T01:20:18.482Z,26.50
2023-02-26T01:22:59.971Z,26.50
2023-02-26T01:25:45.662Z,26.50
2023-02-26T01:28:22.163Z,26.50
2023-02-26T01:31:02.376Z,26.60
2023-02-26T01:33:46.324Z,26.70
2023-02-26T01:36:25.135Z,26.70
2023-02-26T01:39:08.054Z,26.80
2023-02-26T01:41:49.975Z,26.80
2023-02-26T01:44:35.583Z,26.80
2023-02-26T01:47:20.769Z,26.80
2023-02-26T01:49:56.493Z,26.70
2023-02-26T01:53:12.394Z,26.70
2023-02-26T01:55:51.169Z,26.70
2023-02-26T01:58:29.627Z,26.80
2023-02-26T02:01:05.367Z,26.90
2023-02-26T02:03:44.047Z,27.00
2023-02-26T02:06:24.907Z,27.10
2023-02-26T02:09:00.877Z,27.00
2023-02-26T02:11:36.484Z,27.10
2023-02-26T02:14:21.887Z,27.20
2023-02-26T02:17:04.759Z,27.30
2023-02-26T02:20:22.178Z,27.40
2023-02-26T02:23:12.216Z,27.40
2023-02-26T02:26:08.723Z,27.40
2023-02-26T02:29:03.171Z,27.50
2023-02-26T02:31:45.835Z,27.60
2023-02-26T02:34:26.563Z,27.70
2023-02-26T02:37:06.821Z,27.80
2023-02-26T02:39:47.884Z,27.70
2023-02-26T02:42:29.080Z,27.70
2023-02-26T02:45:07.434Z,27.90
2023-02-26T02:47:49.530Z,27.90
2023-02-26T02:50:30.779Z,27.90
2023-02-26T02:53:12.142Z,27.80
2023-02-26T02:55:53.794Z,27.70
2023-02-26T02:58:34.977Z,27.80
2023-02-26T03:01:14.189Z,27.70
2023-02-26T03:03:59.660Z,27.70
2023-02-26T03:06:37.606Z,27.60
2023-02-26T03:09:15.131Z,27.50
2023-02-26T03:11:50.341Z,27.50
2023-02-26T03:14:26.132Z,27.60
2023-02-26T03:17:18.234Z,27.70
2023-02-26T03:20:09.082Z,27.90
2023-02-26T03:22:51.930Z,27.90
2023-02-26T03:25:35.521Z,28.00
2023-02-26T03:28:29.290Z,28.10
2023-02-26T03:31:14.158Z,28.20
2023-02-26T03:33:59.347Z,28.30
2023-02-26T03:36:41.675Z,28.40
2023-02-26T03:39:33.089Z,28.40
2023-02-26T03:42:13.231Z,28.50
2023-02-26T03:45:02.376Z,28.50
2023-02-26T03:47:39.986Z,28.60
2023-02-26T03:50:21.204Z,28.50
2023-02-26T03:53:21.076Z,28.50
2023-02-26T03:56:10.889Z,28.60
2023-02-26T03:59:05.829Z,28.70
2023-02-26T04:02:06.636Z,28.70
2023-02-26T04:04:52.517Z,28.80
2023-02-26T04:07:29.054Z,28.80
2023-02-26T04:10:06.780Z,28.70
2023-02-26T04:12:42.477Z,28.80
2023-02-26T04:15:19.127Z,28.90
2023-02-26T04:17:54.415Z,28.80
2023-02-26T04:20:30.584Z,28.70
2023-02-26T04:23:07.202Z,28.60
2023-02-26T04:25:46.479Z,28.60
2023-02-26T04:28:23.855Z,28.50
2023-02-26T04:31:00.481Z,28.40
2023-02-26T04:33:36.977Z,28.40
2023-02-26T04:36:14.303Z,28.10
2023-02-26T04:38:50.130Z,28.00
2023-02-26T04:41:27.586Z,28.00
2023-02-26T04:44:03.719Z,28.10
2023-02-26T04:46:40.376Z,28.30
2023-02-26T04:49:15.811Z,28.30
2023-02-26T04:51:52.760Z,28.20
2023-02-26T04:54:29.173Z,28.10
2023-02-26T04:57:07.098Z,27.90
2023-02-26T04:59:42.436Z,27.70
2023-02-26T05:02:20.748Z,27.70
2023-02-26T05:04:58.911Z,27.70
2023-02-26T05:07:35.407Z,27.70
2023-02-26T05:10:12.174Z,27.60
2023-02-26T05:12:49.745Z,27.50
2023-02-26T05:15:25.590Z,27.50
2023-02-26T05:18:01.238Z,27.40
2023-02-26T05:20:37.226Z,27.40
2023-02-26T05:23:13.606Z,27.40
2023-02-26T05:25:49.920Z,27.40
2023-02-26T05:28:28.164Z,27.30
2023-02-26T05:31:03.991Z,27.20
2023-02-26T05:33:39.581Z,27.10
2023-02-26T05:36:15.562Z,27.10
2023-02-26T05:38:51.610Z,27.00
2023-02-26T05:41:27.438Z,27.00
2023-02-26T05:44:04.862Z,26.90
2023-02-26T05:46:40.623Z,26.90
2023-02-26T05:49:16.626Z,26.80
2023-02-26T05:51:51.941Z,26.70
2023-02-26T05:54:27.362Z,26.60
2023-02-26T05:57:03.709Z,26.40
2023-02-26T05:59:42.015Z,26.50
2023-02-26T06:02:17.698Z,26.50
2023-02-26T06:04:52.873Z,26.50
2023-02-26T06:07:28.842Z,26.40
2023-02-26T06:10:05.840Z,26.40
2023-02-26T06:12:41.750Z,26.40
2023-02-26T06:15:19.078Z,26.40
2023-02-26T06:17:54.903Z,26.30
2023-02-26T06:20:31.292Z,26.30
2023-02-26T06:23:06.557Z,26.30
2023-02-26T06:25:41.788Z,26.30
2023-02-26T06:28:18.102Z,26.30
2023-02-26T06:30:57.933Z,26.30
2023-02-26T06:33:33.273Z,26.20
2023-02-26T06:36:10.019Z,26.20
2023-02-26T06:38:47.272Z,26.00
2023-02-26T06:41:22.801Z,25.90
2023-02-26T06:43:58.564Z,25.90
2023-02-26T06:46:35.549Z,25.80
2023-02-26T06:49:11.330Z,25.70
2023-02-26T06:51:47.130Z,25.70
2023-02-26T06:54:22.415Z,25.70
2023-02-26T06:56:59.354Z,25.60
2023-02-26T06:59:35.722Z,25.60
2023-02-26T07:02:14.392Z,25.70
2023-02-26T07:04:49.749Z,25.70
2023-02-26T07:07:25.240Z,25.70
2023-02-26T07:10:01.079Z,25.60
2023-02-26T07:12:36.824Z,25.70
2023-02-26T07:15:13.353Z,25.70
2023-02-26T07:17:50.440Z,25.70
2023-02-26T07:20:27.682Z,25.70
2023-02-26T07:23:03.356Z,25.80
2023-02-26T07:25:39.225Z,25.70
2023-02-26T07:28:14.385Z,25.80
2023-02-26T07:30:50.786Z,25.80
2023-02-26T07:33:30.144Z,25.70
2023-02-26T07:36:05.386Z,25.70
2023-02-26T07:38:40.933Z,25.60
2023-02-26T07:41:16.263Z,25.60
2023-02-26T07:43:52.086Z,25.60
2023-02-26T07:46:28.169Z,25.60
2023-02-26T07:49:05.658Z,25.60
2023-02-26T07:51:42.594Z,25.60
2023-02-26T07:54:18.575Z,25.60
2023-02-26T07:56:53.939Z,25.50
2023-02-26T07:59:29.055Z,25.50
2023-02-26T08:02:05.466Z,25.50
2023-02-26T08:04:44.252Z,25.40
2023-02-26T08:07:19.807Z,25.40
2023-02-26T08:09:55.247Z,25.30
2023-02-26T08:12:31.038Z,25.30
2023-02-26T08:15:06.819Z,25.30
2023-02-26T08:17:42.604Z,25.30
2023-02-26T08:20:20.060Z,25.30
2023-02-26T08:22:56.259Z,25.30
2023-02-26T08:25:31.942Z,25.30
2023-02-26T08:28:07.101Z,25.30
2023-02-26T08:30:42.276Z,25.30
2023-02-26T08:33:18.656Z,25.40
2023-02-26T08:35:57.401Z,25.40
2023-02-26T08:38:33.552Z,25.40
2023-02-26T08:41:09.936Z,25.40
2023-02-26T08:43:46.923Z,25.30
2023-02-26T08:46:23.267Z,25.30
2023-02-26T08:48:59.285Z,25.30
2023-02-26T08:51:37.456Z,25.30
2023-02-26T08:54:13.031Z,25.30
2023-02-26T08:56:49.118Z,25.30
2023-02-26T08:59:24.567Z,25.30
2023-02-26T09:01:59.910Z,25.30
2023-02-26T09:04:36.300Z,25.20
2023-02-26T09:07:14.108Z,25.20
2023-02-26T09:09:49.430Z,25.20
2023-02-26T09:12:24.769Z,25.20
2023-02-26T09:15:00.786Z,25.10
2023-02-26T09:17:37.901Z,25.00
2023-02-26T09:20:15.236Z,25.10
2023-02-26T09:22:52.311Z,25.10
2023-02-26T09:25:28.095Z,25.10
2023-02-26T09:28:03.847Z,25.10
2023-02-26T09:30:39.330Z,25.20
2023-02-26T09:33:14.892Z,25.20
2023-02-26T09:35:54.009Z,25.20
2023-02-26T09:38:32.405Z,25.30
2023-02-26T09:41:13.343Z,25.20
2023-02-26T09:44:14.103Z,25.30
2023-02-26T09:47:00.188Z,25.30
2023-02-26T09:49:46.586Z,25.30
2023-02-26T09:52:28.158Z,25.30
2023-02-26T09:55:09.244Z,25.30
2023-02-26T09:57:48.661Z,25.30
2023-02-26T10:00:34.291Z,25.30
2023-02-26T10:03:24.431Z,25.30
2023-02-26T10:06:21.062Z,25.30
2023-02-26T10:09:11.479Z,25.30
2023-02-26T10:11:57.178Z,25.30
2023-02-26T10:14:37.736Z,25.30
2023-02-26T10:17:20.697Z,25.30
2023-02-26T10:20:00.922Z,25.30
2023-02-26T10:22:40.840Z,25.30
2023-02-26T10:25:19.852Z,25.30
2023-02-26T10:28:03.271Z,25.30
2023-02-26T10:30:41.671Z,25.30
2023-02-26T10:33:25.651Z,25.30
2023-02-26T10:36:09.000Z,25.30
2023-02-26T10:38:45.058Z,25.20
2023-02-26T10:41:25.462Z,25.20
2023-02-26T10:44:13.186Z,25.20
2023-02-26T10:46:55.266Z,25.20
2023-02-26T10:49:51.707Z,25.30
2023-02-26T10:52:30.482Z,25.20
2023-02-26T10:55:12.364Z,25.20
2023-02-26T10:57:52.115Z,25.20
2023-02-26T11:00:29.490Z,25.20
2023-02-26T11:03:09.198Z,25.20
2023-02-26T11:05:46.386Z,25.20
2023-02-26T11:08:25.040Z,25.30
2023-02-26T11:11:01.846Z,25.20
2023-02-26T11:13:41.509Z,25.20
2023-02-26T11:16:20.889Z,25.20
2023-02-26T11:19:00.854Z,25.20
2023-02-26T11:21:40.579Z,25.20
2023-02-26T11:24:27.308Z,25.20
2023-02-26T11:27:06.430Z,25.20
2023-02-26T11:29:44.691Z,25.20
2023-02-26T11:32:26.215Z,25.20
2023-02-26T11:35:02.219Z,25.20
2023-02-26T11:37:42.067Z,25.20
2023-02-26T11:40:24.000Z,25.20
2023-02-26T11:43:02.531Z,25.20
2023-02-26T11:45:43.536Z,25.30
2023-02-26T11:48:25.213Z,25.30
2023-02-26T11:51:04.528Z,25.20
2023-02-26T11:53:46.200Z,25.20
2023-02-26T11:56:30.167Z,25.10
2023-02-26T11:59:11.890Z,25.10
2023-02-26T12:01:47.397Z,25.10
2023-02-26T12:04:27.796Z,25.10
2023-02-26T12:07:03.652Z,25.10
2023-02-26T12:09:39.298Z,25.10
2023-02-26T12:12:27.207Z,25.10
2023-02-26T12:15:27.795Z,25.20
2023-02-26T12:18:46.463Z,25.10
2023-02-26T12:21:36.612Z,25.10
2023-02-26T12:24:35.598Z,25.10
2023-02-26T12:27:24.374Z,25.00
2023-02-26T12:30:16.274Z,24.90
2023-02-26T12:33:06.068Z,24.80
2023-02-26T12:35:50.828Z,24.80
2023-02-26T12:38:34.740Z,24.70
2023-02-26T12:41:49.496Z,24.60
2023-02-26T12:44:36.793Z,24.60
2023-02-26T12:47:30.713Z,24.40
2023-02-26T12:50:26.745Z,24.40
2023-02-26T12:53:35.064Z,24.40
2023-02-26T12:56:42.101Z,24.30
2023-02-26T12:59:34.423Z,24.30
2023-02-26T13:02:39.615Z,24.40
2023-02-26T13:05:32.048Z,24.40
2023-02-26T13:08:20.290Z,24.30
2023-02-26T13:11:07.738Z,24.40
2023-02-26T13:13:58.927Z,24.30
2023-02-26T13:16:45.833Z,24.40
2023-02-26T13:19:33.433Z,24.40
2023-02-26T13:22:21.890Z,24.40
2023-02-26T13:25:03.283Z,24.40
2023-02-26T13:27:43.006Z,24.40
2023-02-26T13:30:28.104Z,24.40
2023-02-26T13:33:04.633Z,24.40
2023-02-26T13:35:43.585Z,24.30
2023-02-26T13:38:26.695Z,24.30
2023-02-26T13:41:10.077Z,24.40
2023-02-26T13:44:14.590Z,24.40
2023-02-26T13:47:12.681Z,24.50
2023-02-26T13:49:59.780Z,24.50
2023-02-26T13:52:36.777Z,24.40
2023-02-26T13:55:39.778Z,24.30
2023-02-26T13:58:45.057Z,24.30
2023-02-26T14:01:31.077Z,24.30
2023-02-26T14:04:29.646Z,24.30
2023-02-26T14:07:11.279Z,24.30
2023-02-26T14:10:01.804Z,24.30
2023-02-26T14:12:41.930Z,24.30
2023-02-26T14:15:45.486Z,24.30
2023-02-26T14:18:35.534Z,24.30
2023-02-26T14:21:43.136Z,24.30
2023-02-26T14:24:24.685Z,24.30
2023-02-26T14:27:26.198Z,24.20
2023-02-26T14:30:19.739Z,24.10
2023-02-26T14:32:58.658Z,24.00
2023-02-26T14:35:40.157Z,23.90
2023-02-26T14:38:19.800Z,23.90
2023-02-26T14:40:59.844Z,23.90
2023-02-26T14:43:45.121Z,23.80
2023-02-26T14:46:20.625Z,23.80
2023-02-26T14:48:56.209Z,23.90
2023-02-26T14:51:43.939Z,23.80
2023-02-26T14:54:35.804Z,23.80
2023-02-26T14:57:18.238Z,23.80
2023-02-26T15:00:21.752Z,23.80
2023-02-26T15:03:13.714Z,23.80
2023-02-26T15:06:11.503Z,23.70
2023-02-26T15:08:59.550Z,23.70
2023-02-26T15:11:50.690Z,23.60
2023-02-26T15:14:43.327Z,23.60
2023-02-26T15:17:31.364Z,23.60
2023-02-26T15:20:15.163Z,23.50
2023-02-26T15:23:05.734Z,23.40
2023-02-26T15:25:45.032Z,23.40
2023-02-26T15:28:25.653Z,23.50
2023-02-26T15:31:01.957Z,23.40
2023-02-26T15:33:38.047Z,23.50
2023-02-26T15:36:17.519Z,23.40
2023-02-26T15:38:55.551Z,23.50
2023-02-26T15:41:34.864Z,23.40
2023-02-26T15:44:12.931Z,23.40
2023-02-26T15:46:50.505Z,23.40
2023-02-26T15:49:32.860Z,23.40
2023-02-26T15:52:09.986Z,23.40
2023-02-26T15:54:47.889Z,23.40
2023-02-26T15:57:27.296Z,23.40
2023-02-26T16:00:12.108Z,23.30
2023-02-26T16:02:47.550Z,23.30
2023-02-26T16:05:24.573Z,23.30
2023-02-26T16:08:00.312Z,23.30
2023-02-26T16:10:40.877Z,23.30
2023-02-26T16:13:22.008Z,23.30
2023-02-26T16:15:59.128Z,23.30
2023-02-26T16:18:35.448Z,23.30
2023-02-26T16:21:13.181Z,23.30
2023-02-26T16:23:54.199Z,23.30
2023-02-26T16:26:34.511Z,23.30
2023-02-26T16:29:16.453Z,23.30
2023-02-26T16:31:56.973Z,23.30
2023-02-26T16:34:40.098Z,23.30
2023-02-26T16:37:29.797Z,23.30
2023-02-26T16:40:25.823Z,23.30
2023-02-26T16:43:07.932Z,23.30
2023-02-26T16:45:55.046Z,23.30
2023-02-26T16:48:36.767Z,23.30
2023-02-26T16:51:16.605Z,23.30
2023-02-26T16:53:54.602Z,23.30
2023-02-26T16:56:35.568Z,23.30
2023-02-26T16:59:19.904Z,23.30
2023-02-26T17:02:00.929Z,23.30
2023-02-26T17:04:39.606Z,23.20
2023-02-26T17:07:27.128Z,23.20
2023-02-26T17:10:04.214Z,23.10
2023-02-26T17:12:49.027Z,23.10
2023-02-26T17:15:31.283Z,23.10
2023-02-26T17:18:10.320Z,23.10
2023-02-26T17:20:46.484Z,23.00
2023-02-26T17:23:24.342Z,23.00
2023-02-26T17:26:04.021Z,23.00
2023-02-26T17:28:42.325Z,23.00
2023-02-26T17:31:18.123Z,23.00
2023-02-26T17:33:56.304Z,23.00
2023-02-26T17:36:32.409Z,23.00
2023-02-26T17:39:07.886Z,23.00
2023-02-26T17:41:44.062Z,23.00
2023-02-26T17:44:19.320Z,23.00
2023-02-26T17:46:55.571Z,23.00
2023-02-26T17:49:33.453Z,23.00
2023-02-26T17:52:09.949Z,23.00
2023-02-26T17:54:45.484Z,23.00
2023-02-26T17:57:25.703Z,23.00
2023-02-26T18:00:01.205Z,23.10
2023-02-26T18:02:37.420Z,23.00
2023-02-26T18:05:15.480Z,23.00
2023-02-26T18:07:51.851Z,23.00
2023-02-26T18:10:28.350Z,23.00
2023-02-26T18:13:05.074Z,23.00
2023-02-26T18:15:40.325Z,23.00
2023-02-26T18:18:17.076Z,22.90
2023-02-26T18:20:57.226Z,22.90
2023-02-26T18:23:33.327Z,22.90
2023-02-26T18:26:08.895Z,22.90
2023-02-26T18:28:44.629Z,22.90
2023-02-26T18:31:20.267Z,22.90
2023-02-26T18:33:56.379Z,22.90
2023-02-26T18:36:39.635Z,22.90
2023-02-26T18:39:28.369Z,22.90
2023-02-26T18:42:03.596Z,22.80
2023-02-26T18:44:39.403Z,22.90
2023-02-26T18:47:15.602Z,22.90
2023-02-26T18:49:51.610Z,22.90
2023-02-26T18:52:29.406Z,22.80
2023-02-26T18:55:05.616Z,22.80
2023-02-26T18:57:41.161Z,22.80
2023-02-26T19:00:19.107Z,22.80
2023-02-26T19:02:54.776Z,22.80
2023-02-26T19:05:30.669Z,22.80
2023-02-26T19:08:08.607Z,22.80
2023-02-26T19:10:44.486Z,22.80
2023-02-26T19:13:23.962Z,22.80
2023-02-26T19:15:59.806Z,22.70
2023-02-26T19:18:35.112Z,22.80
2023-02-26T19:21:12.622Z,22.70
2023-02-26T19:23:50.597Z,22.70
2023-02-26T19:26:29.427Z,22.70
2023-02-26T19:29:04.672Z,22.70
2023-02-26T19:31:40.909Z,22.70
2023-02-26T19:34:16.320Z,22.70
2023-02-26T19:36:52.013Z,22.70
2023-02-26T19:39:30.502Z,22.70
2023-02-26T19:42:06.597Z,22.70
2023-02-26T19:44:41.833Z,22.70
2023-02-26T19:47:17.314Z,22.70
2023-02-26T19:49:52.741Z,22.70
2023-02-26T19:52:29.792Z,22.80
2023-02-26T19:55:07.505Z,22.70
2023-02-26T19:57:43.055Z,22.80
2023-02-26T20:00:19.676Z,22.80
2023-02-26T20:02:55.463Z,22.80
2023-02-26T20:05:30.829Z,22.80
2023-02-26T20:08:06.235Z,22.80
2023-02-26T20:10:46.226Z,22.90
2023-02-26T20:13:21.960Z,23.00
2023-02-26T20:15:57.083Z,23.00
2023-02-26T20:18:33.514Z,23.00
2023-02-26T20:21:10.778Z,23.10
2023-02-26T20:23:46.113Z,23.10
2023-02-26T20:26:24.077Z,23.10
2023-02-26T20:28:59.717Z,23.10
2023-02-26T20:31:35.269Z,23.20
2023-02-26T20:34:10.969Z,23.20
2023-02-26T20:36:48.180Z,23.20
2023-02-26T20:39:23.816Z,23.20
2023-02-26T20:42:01.845Z,23.20
2023-02-26T20:44:37.861Z,23.30
2023-02-26T20:47:13.784Z,23.30
2023-02-26T20:49:49.364Z,23.40
2023-02-26T20:52:26.021Z,23.50
2023-02-26T20:55:02.100Z,23.60
2023-02-26T20:57:40.570Z,23.60
2023-02-26T21:00:17.210Z,23.60
2023-02-26T21:02:52.623Z,23.70
2023-02-26T21:05:31.390Z,23.70
2023-02-26T21:08:07.294Z,23.80
2023-02-26T21:10:42.733Z,23.90
2023-02-26T21:13:22.455Z,24.00
2023-02-26T21:15:58.999Z,24.10
2023-02-26T21:18:35.010Z,24.20
2023-02-26T21:21:10.710Z,24.20
2023-02-26T21:23:46.404Z,24.20
2023-02-26T21:26:22.129Z,24.30
2023-02-26T21:29:01.760Z,24.40
2023-02-26T21:31:37.777Z,24.40
2023-02-26T21:34:32.791Z,24.50
2023-02-26T21:37:10.103Z,24.60
2023-02-26T21:39:46.138Z,24.70
2023-02-26T21:42:21.639Z,24.80
2023-02-26T21:44:59.216Z,24.80
2023-02-26T21:47:37.319Z,24.90
2023-02-26T21:50:13.667Z,24.90
2023-02-26T21:52:49.082Z,25.00
2023-02-26T21:55:29.705Z,25.00
2023-02-26T21:58:05.280Z,25.00
2023-02-26T22:00:43.728Z,25.00
2023-02-26T22:03:19.194Z,25.00
2023-02-26T22:05:57.289Z,25.00
2023-02-26T22:08:32.686Z,25.00
2023-02-26T22:11:08.585Z,24.90
2023-02-26T22:13:45.423Z,25.00
2023-02-26T22:16:24.109Z,25.10
2023-02-26T22:18:59.451Z,25.10
2023-02-26T22:21:35.449Z,25.20
2023-02-26T22:24:11.153Z,25.10
2023-02-26T22:26:48.833Z,25.10
2023-02-26T22:29:24.132Z,25.00
2023-02-26T22:32:02.473Z,24.80
2023-02-26T22:34:38.418Z,24.80
2023-02-26T22:37:23.156Z,24.70
2023-02-26T22:39:58.429Z,24.70
2023-02-26T22:42:34.315Z,24.70
2023-02-26T22:45:10.251Z,24.60
2023-02-26T22:47:49.658Z,24.50
2023-02-26T22:50:25.112Z,24.60
2023-02-26T22:53:00.560Z,24.60
2023-02-26T22:55:35.846Z,24.60
2023-02-26T22:58:12.139Z,24.70
2023-02-26T23:00:47.453Z,24.70
2023-02-26T23:03:52.627Z,24.70
2023-02-26T23:06:27.866Z,24.70
2023-02-26T23:09:03.839Z,24.70
2023-02-26T23:11:39.160Z,24.80
2023-02-26T23:14:15.093Z,24.80
2023-02-26T23:16:53.446Z,24.80
2023-02-26T23:19:34.921Z,24.80
2023-02-26T23:22:10.322Z,24.90
2023-02-26T23:24:48.004Z,25.00
2023-02-26T23:27:23.730Z,25.10
2023-02-26T23:29:59.860Z,25.20
2023-02-26T23:32:35.274Z,25.20
2023-02-26T23:35:14.376Z,25.30
2023-02-26T23:37:49.615Z,25.30
2023-02-26T23:40:25.976Z,25.30
2023-02-26T23:43:03.857Z,25.30
2023-02-26T23:45:42.486Z,25.30
2023-02-26T23:48:17.962Z,25.30
2023-02-26T23:50:56.524Z,25.40
2023-02-26T23:53:31.741Z,25.40
2023-02-26T23:56:07.807Z,25.50
2023-02-26T23:58:43.477Z,25.60
